Oak Beach, New York
Current Conditions -  °F | °C
As of 9:53 AM on Monday 24 Nov 2014 (Local Time) from KFRG Reporting Station
Haze Haze  
Wind Chill: 62°   Ceiling: 300
Heat Index: 62°   Visibility: 2mi
Dew Point: 59°   Wind: 17mph
Humidity: 90%   Direction: 210°SSW
Pressure: 29.72"   Gusts: 24mph
Location:  40.6311°N, 73.3431°W
Report Text: KFRG 241453Z 21015G21KT 2SM BR OVC003 17/15 A2972 RMK AO2 PK WND 21026/1400 RAB1359E17 SLP064 P0003 60005 T01670150 58003
Loading
Personal Weather Stations






























Interactive Weather Map New forecast layout! Learn more

10-Day Weather Forecast

Advertisements
Track Severe Weather on mobile